Stations météo

réclame
Mon MeteoGroup
Embrun, France (7591): Température de l'air & dewpoint: 11.01.2019 02:00:00 - 17.01.2019 02:00:00 (CET)Embrun, France (7591): Température de l'air 5cm: 11.01.2019 02:00:00 - 17.01.2019 02:00:00 (CET)Embrun, France (7591): Température de l'air -20cm & Température de l'air -100cm: 11.01.2019 02:00:00 - 17.01.2019 02:00:00 (CET)Embrun, France (7591): Vitesse du vent & gusts: 11.01.2019 02:00:00 - 17.01.2019 02:00:00 (CET)Embrun, France (7591): Direction du vent: 11.01.2019 02:00:00 - 17.01.2019 02:00:00 (CET)Embrun, France (7591): visibility: 11.01.2019 02:00:00 - 17.01.2019 02:00:00 (CET)Embrun, France (7591): Ensoleillement: 11.01.2019 02:00:00 - 17.01.2019 02:00:00 (CET)Embrun, France (7591): Quantités de précipitations: 11.01.2019 02:00:00 - 17.01.2019 02:00:00 (CET)
Date & Time tt [°C] td [°C] tt 5cm [°C] tt -20cm [°C] tt -100cm [°C] ff [km/h] ff [knt] fx [km/h] fx [knt] dd vv [km] sd [min] rr [mm]
17.01.2019 02:00:00 1,4 -5,7 0,1 1,5 5,2 10 5 15 8 NNE 20 0 0,0
17.01.2019 01:00:00 1,3 -5,8 0,4 1,5 5,2 9 5 17 9 NNE 20 0 0,0
17.01.2019 00:00:00 1,1 -5,4 0,1 1,5 5,2 8 4 14 8 NNE 20 0 0,0
16.01.2019 23:00:00 0,5 -4,3 -0,7 1,5 5,1 5 3 10 6 NE 20 0 0,0
16.01.2019 22:00:00 0,5 -3,8 -2,9 1,5 5,2 4 2 9 5 NNE 20 0 0,0
16.01.2019 21:00:00 0,3 -4,0 -3,5 1,5 5,2 4 2 9 5 N 8 0 0,0
16.01.2019 20:00:00 0,9 -4,5 -2,9 1,5 5,2 0 0 5 3 N 20 0 0,0
16.01.2019 19:00:00 1,7 -5,2 -2,7 1,5 5,2 4 2 7 4 N 20 0 0,0
16.01.2019 18:00:00 3,2 -5,7 -0,6 1,5 5,2 3 1 8 4 NNW 20 0 0,0
16.01.2019 17:00:00 6,6 -6,7 3,4 1,5 5,2 5 3 12 6 W 20 55 0,0
16.01.2019 16:00:00 9,2 -7,9 11,4 1,5 5,2 5 3 14 8 SSW 20 60 0,0
16.01.2019 15:00:00 9,3 -8,3 15,6 1,5 5,2 6 3 14 7 S 20 60 0,0
16.01.2019 14:00:00 8,4 -7,8 15,0 1,5 5,2 6 4 16 8 S 20 60 0,0
16.01.2019 13:00:00 6,9 -7,5 13,8 1,5 5,2 7 4 15 8 S 19 60 0,0
16.01.2019 12:00:00 6,0 -7,6 12,8 1,5 5,2 6 3 12 7 S 20 60 0,0
16.01.2019 11:00:00 4,4 -8,0 8,5 1,5 5,2 5 3 20 11 E 20 60 0,0
16.01.2019 10:00:00 1,2 -7,8 -2,3 1,5 5,2 8 4 22 12 ENE 20 34 0,0
16.01.2019 09:00:00 -0,8 -9,0 -2,8 1,5 5,2 11 6 24 13 NE 20 0 0,0
16.01.2019 08:00:00 -0,5 -8,9 -2,8 1,5 5,2 13 7 34 18 NNE 20 0 0,0
16.01.2019 07:00:00 0,1 -8,6 -3,0 1,5 5,2 19 11 34 18 NNE 20 0 0,0
16.01.2019 06:00:00 -0,8 -8,7 -3,2 1,5 5,2 18 10 28 15 NNE 20 0 0,0
16.01.2019 05:00:00 -1,5 -8,3 -3,8 1,5 5,2 15 8 24 13 NNE 20 0 0,0
16.01.2019 04:00:00 -1,9 -8,0 -4,1 1,5 5,2 16 9 22 12 NE 20 0 0,0
16.01.2019 03:00:00 -2,0 -8,1 -4,8 1,5 5,2 11 6 16 9 NNE 20 0 0,0
16.01.2019 02:00:00 -2,3 -7,8 -5,3 1,5 5,2 8 4 15 8 NE 20 0 0,0
16.01.2019 01:00:00 -2,6 -7,5 -5,8 1,5 5,2 9 5 14 7 NE 20 0 0,0
16.01.2019 00:00:00 -2,4 -7,5 -6,1 1,5 5,2 5 3 13 7 NE 20 0 0,0
15.01.2019 23:00:00 -1,6 -7,3 -4,8 1,5 5,2 0 0 10 5 N 20 0 0,0
15.01.2019 22:00:00 -1,4 -7,1 -5,0 1,5 5,2 4 2 7 4 NE 20 0 0,0
15.01.2019 21:00:00 -0,7 -6,7 -3,4 1,5 5,2 0 0 17 9 N 20 0 0,0
15.01.2019 20:00:00 0,1 -6,3 -3,9 1,5 5,3 6 4 13 7 NNE 18 0 0,0
15.01.2019 19:00:00 1,0 -6,1 -3,0 1,5 5,2 5 3 9 5 NNE 20 0 0,0
15.01.2019 18:00:00 1,9 -6,2 -2,2 1,5 5,3 4 2 7 4 NNE 20 0 0,0
15.01.2019 17:00:00 5,8 -7,5 3,3 1,5 5,3 3 1 11 6 SW 20 54 0,0
15.01.2019 16:00:00 7,9 -6,3 9,1 1,5 5,2 5 3 14 7 SSW 20 60 0,0
15.01.2019 15:00:00 7,8 -7,1 13,8 1,5 5,2 6 3 16 9 S 20 60 0,0
15.01.2019 14:00:00 6,7 -7,0 13,4 1,5 5,2 7 4 16 9 S 20 60 0,0
15.01.2019 13:00:00 5,2 -7,0 10,7 1,5 5,2 4 2 16 9 S 20 60 0,0
15.01.2019 12:00:00 4,4 -6,5 10,6 1,5 5,2 4 2 11 6 SSE 20 56 0,0
15.01.2019 11:00:00 1,4 -7,2 5,2 1,5 5,3 2 1 8 4 ESE 20 60 0,0
15.01.2019 10:00:00 -1,5 -6,8 -6,3 1,5 5,3 3 2 8 4 S 20 34 0,0
15.01.2019 09:00:00 -4,2 -8,5 -7,3 1,5 5,3 4 2 11 6 N 20 0 0,0
15.01.2019 08:00:00 -4,2 -8,1 -7,8 1,5 5,3 5 3 13 7 N 20 0 0,0
15.01.2019 07:00:00 -3,6 -8,3 -7,8 1,5 5,3 5 3 8 4 NNE 20 0 0,0
15.01.2019 06:00:00 -3,2 -7,9 -7,3 1,5 5,3 4 2 6 3 NNE 20 0 0,0
15.01.2019 05:00:00 -3,0 -7,9 -6,8 1,5 5,3 4 2 6 3 NNE 20 0 0,0
15.01.2019 04:00:00 -2,6 -7,7 -6,5 1,5 5,3 0 0 7 4 N 20 0 0,0
15.01.2019 03:00:00 -2,0 -7,5 -5,9 1,5 5,3 0 0 9 5 N 20 0 0,0
15.01.2019 02:00:00 -2,0 -7,3 -5,5 1,5 5,3 4 2 10 6 NNW 20 0 0,0
15.01.2019 01:00:00 -1,3 -7,0 -5,2 1,5 5,3 6 3 16 8 N 20 0 0,0
15.01.2019 00:00:00 -1,0 -6,4 -5,0 1,5 5,3 6 3 14 8 NE 20 0 0,0
14.01.2019 23:00:00 -0,6 -6,0 -4,9 1,5 5,3 4 2 13 7 NNE 20 0 0,0
14.01.2019 22:00:00 -0,9 -5,3 -4,3 1,5 5,3 5 3 12 7 NW 20 0 0,0
14.01.2019 21:00:00 -0,9 -5,1 -4,1 1,5 5,3 4 2 12 7 SW 20 0 0,0
14.01.2019 20:00:00 -0,2 -5,0 -3,2 1,5 5,3 5 3 11 6 SSW 20 0 0,0
14.01.2019 19:00:00 1,4 -4,7 -2,6 1,5 5,4 3 2 6 4 W 19 0 0,0
14.01.2019 18:00:00 3,3 -4,4 -0,5 1,5 5,4 4 2 8 5 WSW 19 0 0,0
14.01.2019 17:00:00 5,8 -4,7 1,9 1,5 5,3 0 0 25 14 N 20 52 0,0
14.01.2019 16:00:00 8,5 -3,7 8,4 1,5 5,3 12 7 32 17 SSW 20 60 0,0
14.01.2019 15:00:00 9,7 -3,3 13,6 1,5 5,4 20 11 30 16 SSW 20 60 0,0
14.01.2019 14:00:00 11,1 -2,7 15,5 1,5 5,4 16 9 27 15 SSW 20 60 0,0
14.01.2019 13:00:00 10,1 -1,6 15,2 1,5 5,4 18 10 30 16 SSW 20 60 0,0
14.01.2019 12:00:00 9,0 -0,9 13,8 1,5 5,4 14 8 26 14 SSW 20 60 0,0
14.01.2019 11:00:00 6,8 -0,7 11,0 1,5 5,4 9 5 20 11 SW 20 60 0,0
14.01.2019 10:00:00 4,3 -0,5 0,3 1,5 5,4 9 5 29 16 NE 20 34 0,0
14.01.2019 09:00:00 2,2 -1,4 -0,9 1,5 5,4 16 8 23 12 NNE 20 0 0,0
14.01.2019 08:00:00 2,9 -1,1 -0,9 1,5 5,4 11 6 19 10 NW 20 0 0,0
14.01.2019 07:00:00 2,8 -0,8 -1,2 1,5 5,4 6 4 18 10 N 20 0 0,0
14.01.2019 06:00:00 2,9 -0,6 0,2 1,5 5,4 8 4 15 8 NNW 20 0 0,0
14.01.2019 05:00:00 2,3 -0,8 -1,0 1,5 5,4 4 2 19 10 N 20 0 0,0
14.01.2019 04:00:00 1,1 -1,6 -1,3 1,5 5,4 6 4 12 6 W 20 0 0,0
14.01.2019 03:00:00 3,2 -0,8 -1,8 1,5 5,4 8 4 15 8 NNE 20 0 0,0
14.01.2019 02:00:00 1,9 -1,2 -2,1 1,5 5,4 4 2 8 5 N 20 0 0,0
14.01.2019 01:00:00 1,5 -1,9 -1,8 1,5 5,4 0 0 12 7 N 20 0 0,0
14.01.2019 00:00:00 1,3 -2,1 -1,7 1,5 5,4 4 2 9 5 NNE 20 0 0,0
13.01.2019 23:00:00 2,4 -2,1 -1,3 1,5 5,4 4 2 6 4 N 20 0 0,0
13.01.2019 22:00:00 2,0 -2,2 -0,8 1,5 5,4 4 2 15 8 NNW 20 0 0,0
13.01.2019 21:00:00 2,8 -1,6 -1,0 1,5 5,4 4 2 11 6 N 20 0 0,0
13.01.2019 20:00:00 3,3 -1,5 -0,4 1,5 5,4 3 2 12 6 N 20 0 0,0
13.01.2019 19:00:00 4,0 -1,4 0,9 1,5 5,4 4 2 8 5 NE 20 0 0,0
13.01.2019 18:00:00 6,4 -0,8 3,4 1,5 5,4 4 2 18 10 W 20 0 0,0
13.01.2019 17:00:00 8,9 -1,0 6,9 1,5 5,5 5 3 9 5 WSW 20 51 0,0
13.01.2019 16:00:00 11,2 -0,6 13,4 1,5 5,4 3 2 14 8 WSW 20 60 0,0
13.01.2019 15:00:00 11,2 -0,9 15,5 1,5 5,4 9 5 16 9 S 20 60 0,0
13.01.2019 14:00:00 11,6 -1,2 17,6 1,5 5,5 3 2 12 7 S 20 60 0,0
13.01.2019 13:00:00 8,0 -3,2 12,8 1,5 5,5 3 2 10 5 SSW 20 58 0,0
13.01.2019 12:00:00 5,6 -3,8 11,1 1,5 5,5 4 2 11 6 WSW 20 54 0,0
13.01.2019 11:00:00 2,2 -4,1 7,1 1,5 5,5 4 2 17 9 ENE 20 60 0,0
13.01.2019 10:00:00 -1,1 -5,3 -4,3 1,5 5,5 4 2 15 8 N 20 34 0,0
13.01.2019 09:00:00 -4,2 -7,1 -6,1 1,5 5,5 8 4 19 11 NNE 20 0 0,0
13.01.2019 08:00:00 -4,3 -7,1 -6,7 1,5 5,5 5 3 18 10 NNE 15 0 0,0
13.01.2019 07:00:00 -4,2 -7,1 -6,7 1,5 5,5 5 3 13 7 N 20 0 0,0
13.01.2019 06:00:00 -3,9 -7,0 -6,8 1,5 5,5 5 3 11 6 NE 20 0 0,0
13.01.2019 05:00:00 -4,0 -7,3 -6,6 1,5 5,5 4 2 15 8 NNE 20 0 0,0
13.01.2019 04:00:00 -4,0 -7,1 -7,1 1,5 5,5 4 2 13 7 NW 20 0 0,0
13.01.2019 03:00:00 -4,2 -7,6 -5,8 1,5 5,5 7 4 18 10 NNE 20 0 0,0
13.01.2019 02:00:00 -3,5 -7,5 -6,2 1,5 5,5 10 5 18 10 NNE 20 0 0,0
13.01.2019 01:00:00 -3,8 -7,4 -5,5 1,5 5,5 11 6 19 10 NE 20 0 0,0
13.01.2019 00:00:00 -3,3 -7,3 -6,0 1,6 5,5 6 4 13 7 NNE 17 0 0,0
12.01.2019 23:00:00 -3,1 -7,4 -6,0 1,5 5,5 5 3 9 5 NE 20 0 0,0
12.01.2019 22:00:00 -2,9 -7,2 -5,9 1,5 5,5 3 1 5 3 SW 16 0 0,0
12.01.2019 21:00:00 -2,7 -7,4 -5,5 1,5 5,5 3 2 11 6 ENE 19 0 0,0
12.01.2019 20:00:00 -1,9 -7,4 -5,5 1,5 5,5 4 2 11 6 N 20 0 0,0
12.01.2019 19:00:00 -1,5 -7,2 -4,6 1,6 5,5 2 1 10 5 WNW 20 0 0,0
12.01.2019 18:00:00 0,2 -7,3 -3,0 1,6 5,5 0 0 8 4 N 20 0 0,0
12.01.2019 17:00:00 2,9 -7,9 0,8 1,5 5,5 4 2 8 5 SSW 20 50 0,0
12.01.2019 16:00:00 5,5 -7,7 5,8 1,6 5,5 4 2 12 7 SW 20 60 0,0
12.01.2019 15:00:00 5,2 -8,7 10,0 1,6 5,5 6 3 14 8 S 20 60 0,0
12.01.2019 14:00:00 3,5 -9,5 10,2 1,6 5,5 7 4 16 8 SSE 20 60 0,0
12.01.2019 13:00:00 1,7 -10,2 7,7 1,6 5,6 6 3 16 8 S 20 60 0,0
12.01.2019 12:00:00 0,8 -9,5 9,8 1,6 5,5 6 3 19 11 ESE 20 60 0,0
12.01.2019 11:00:00 -2,2 -9,6 -0,8 1,6 5,5 4 2 11 6 ENE 20 60 0,0
12.01.2019 10:00:00 -5,3 -10,1 -9,8 1,6 5,6 5 3 16 9 ESE 20 34 0,0
12.01.2019 09:00:00 -8,5 -11,8 -10,4 1,6 5,6 0 0 17 9 N 14 0 0,0
12.01.2019 08:00:00 -8,5 -12,1 -11,0 1,6 5,6 7 4 16 8 NNE 19 0 0,0
12.01.2019 07:00:00 -8,3 -12,3 -10,9 1,6 5,6 2 1 9 5 NE 20 0 0,0
12.01.2019 06:00:00 -8,4 -11,9 -11,1 1,6 5,6 5 3 8 5 NNE 20 0 0,0
12.01.2019 05:00:00 -7,9 -11,9 -10,9 1,6 5,6 0 0 8 5 N 20 0 0,0
12.01.2019 04:00:00 -8,3 -11,6 -10,7 1,6 5,6 3 2 5 3 NW 20 0 0,0
12.01.2019 03:00:00 -7,9 -11,6 -9,5 1,6 5,6 0 0 16 9 N 20 0 0,0
12.01.2019 02:00:00 -7,5 -11,5 -9,6 1,6 5,6 7 4 15 8 NNE 20 0 0,0
12.01.2019 01:00:00 -6,8 -11,2 -9,5 1,6 5,6 4 2 10 5 N 19 0 0,0
12.01.2019 00:00:00 -6,6 -10,6 -9,4 1,6 5,6 5 3 12 6 NNE 20 0 0,0
11.01.2019 23:00:00 -6,4 -10,4 -9,4 1,6 5,6 5 3 9 5 NNE 15 0 0,0
11.01.2019 22:00:00 -5,4 -10,2 -8,6 1,6 5,6 3 2 8 4 N 13 0 0,0
11.01.2019 21:00:00 -5,0 -10,4 -7,8 1,6 5,6 5 3 9 5 NNE 20 0 0,0
11.01.2019 20:00:00 -3,9 -10,3 -7,1 1,6 5,6 3 2 7 4 NNE 20 0 0,0
11.01.2019 19:00:00 -3,3 -11,1 -6,8 1,6 5,6 2 1 4 2 N 13 0 0,0
11.01.2019 18:00:00 -2,3 -12,1 -5,2 1,7 5,7 0 0 7 4 N 20 0 0,0
11.01.2019 17:00:00 0,4 -11,7 -1,7 1,6 5,6 3 2 13 7 SW 20 49 0,0
11.01.2019 16:00:00 2,3 -10,9 2,4 1,6 5,6 7 4 15 8 S 20 60 0,0
11.01.2019 15:00:00 1,9 -10,9 7,7 1,6 5,6 8 5 18 10 SW 20 60 0,0
11.01.2019 14:00:00 1,4 -13,5 8,3 1,6 5,6 7 4 14 8 SSW 20 60 0,0
11.01.2019 13:00:00 0,6 -13,5 8,3 1,7 5,6 7 4 14 8 SSW 20 60 0,0
11.01.2019 12:00:00 -0,6 -13,9 3,6 1,7 5,7 5 3 13 7 SSE 20 60 0,0
11.01.2019 11:00:00 -2,6 -13,5 2,1 1,7 5,7 9 5 20 11 E 20 60 0,0
11.01.2019 10:00:00 -5,9 -13,7 -10,7 1,7 5,7 2 1 9 5 SW 20 34 0,0
11.01.2019 09:00:00 -9,3 -14,3 -12,3 1,7 5,7 6 4 10 5 NE 20 0 0,0
11.01.2019 08:00:00 -9,3 -14,1 -12,3 1,7 5,6 4 2 16 8 N 20 0 0,0
11.01.2019 07:00:00 -9,2 -14,2 -12,2 1,7 5,7 6 3 12 7 NE 20 0 0,0
11.01.2019 06:00:00 -8,5 -14,1 -12,2 1,7 5,7 9 5 16 8 NNE 20 0 0,0
11.01.2019 05:00:00 -8,7 -13,5 -12,2 1,7 5,7 0 0 6 4 N 20 0 0,0
11.01.2019 04:00:00 -8,5 -13,2 -11,9 1,7 5,7 2 1 5 3 SSE 20 0 0,0
11.01.2019 03:00:00 -8,1 -13,3 -11,4 1,7 5,7 0 0 6 3 N 20 0 0,0
11.01.2019 02:00:00 -7,5 -12,8 -10,4 1,7 5,7 6 3 9 5 E 20 0 0,0

tt = Température de l'air
td = dewpoint
tt 5cm = Température de l'air 5cm
tt -20cm = Température de l'air -20cm
tt -100cm = Température de l'air -100cm
ff = Vitesse du vent
fx = gusts
dd = Direction du vent
vv = visibility
sd = Ensoleillement
rr = Quantités de précipitations

stations d'obs. à proximité